Time;durP1;ratioP1;P1;durP2;ratioP2;P2;SDS_P1;SDS_P2;PMS_P1;PMS_P2;Temp;Humidity;BMP_temperature;BMP_pressure;BME280_temperature;BME280_humidity;BME280_pressure;Samples;Min_cycle;Max_cycle;Signal;HPM_P1;HPM_P2
2022/07/08 00:00:32;;;;;;;34.92;11.93;;;;;;;;;;5028595;28;20220;-48
2022/07/08 00:02:58;;;;;;;29.98;11.63;;;;;;;;;;5013889;28;20169;-48
2022/07/08 00:05:24;;;;;;;10.40;6.90;;;;;;;;;;5013525;28;20312;-48
2022/07/08 00:07:50;;;;;;;60.67;18.73;;;;;;;;;;5013068;28;20221;-48
2022/07/08 00:10:16;;;;;;;48.20;15.48;;;;;;;;;;5013443;28;20244;-48
2022/07/08 00:12:42;;;;;;;39.80;13.38;;;;;;;;;;5012924;28;20303;-48
2022/07/08 00:15:09;;;;;;;28.55;10.77;;;;;;;;;;5014234;28;20181;-48
2022/07/08 00:17:35;;;;;;;51.17;16.45;;;;;;;;;;5012863;28;20275;-48
2022/07/08 00:20:01;;;;;;;46.58;15.27;;;;;;;;;;5012856;28;20212;-48
2022/07/08 00:22:27;;;;;;;35.72;13.43;;;;;;;;;;5013204;28;20632;-49
2022/07/08 00:24:53;;;;;;;35.60;12.27;;;;;;;;;;5013116;28;20584;-48
2022/07/08 00:27:19;;;;;;;28.20;11.20;;;;;;;;;;5012866;28;20606;-48
2022/07/08 00:29:45;;;;;;;43.65;14.43;;;;;;;;;;5013251;28;20188;-48
2022/07/08 00:32:11;;;;;;;43.77;15.20;;;;;;;;;;5012662;28;20221;-48
2022/07/08 00:34:37;;;;;;;36.95;12.32;;;;;;;;;;5012804;28;20217;-48
2022/07/08 00:37:04;;;;;;;45.38;14.65;;;;;;;;;;5013169;28;20221;-48
2022/07/08 00:39:30;;;;;;;20.13;9.43;;;;;;;;;;5012878;28;20517;-48
2022/07/08 00:41:56;;;;;;;34.20;11.57;;;;;;;;;;5013149;28;20651;-48
2022/07/08 00:44:22;;;;;;;35.20;12.00;;;;;;;;;;5012359;28;20693;-48
2022/07/08 00:46:48;;;;;;;35.60;12.27;;;;;;;;;;5012637;28;20220;-48
2022/07/08 00:49:14;;;;;;;42.05;13.02;;;;;;;;;;5012316;28;20217;-48
2022/07/08 00:51:41;;;;;;;42.30;13.00;;;;;;;;;;5012438;28;20577;-48
2022/07/08 00:54:07;;;;;;;35.78;11.90;;;;;;;;;;5013181;28;20180;-48
2022/07/08 00:56:33;;;;;;;46.90;15.23;;;;;;;;;;5012460;28;20217;-49
2022/07/08 00:58:59;;;;;;;42.85;13.90;;;;;;;;;;5012069;28;20232;-48
2022/07/08 01:01:25;;;;;;;30.63;10.85;;;;;;;;;;5012195;28;20665;-48
2022/07/08 01:03:51;;;;;;;9.70;5.65;;;;;;;;;;5012359;28;20579;-48
2022/07/08 01:06:17;;;;;;;38.97;12.52;;;;;;;;;;5011472;28;20224;-48
2022/07/08 01:08:43;;;;;;;39.30;12.87;;;;;;;;;;5012577;28;20253;-48
2022/07/08 01:11:09;;;;;;;36.07;12.43;;;;;;;;;;5012068;28;20220;-48
2022/07/08 01:13:35;;;;;;;48.90;15.73;;;;;;;;;;5011860;28;20566;-48
2022/07/08 01:16:01;;;;;;;25.08;9.13;;;;;;;;;;5012204;28;20327;-48
2022/07/08 01:18:28;;;;;;;35.80;12.35;;;;;;;;;;5011819;28;20740;-48
2022/07/08 01:20:54;;;;;;;32.13;11.00;;;;;;;;;;5012565;28;20566;-48
2022/07/08 01:23:20;;;;;;;42.08;14.10;;;;;;;;;;5012079;28;20216;-48
2022/07/08 01:25:47;;;;;;;47.97;14.83;;;;;;;;;;5011742;28;20244;-48
2022/07/08 01:28:13;;;;;;;39.90;12.90;;;;;;;;;;5011687;28;20221;-48
2022/07/08 01:30:39;;;;;;;37.90;12.30;;;;;;;;;;5011856;28;20230;-48
2022/07/08 01:33:05;;;;;;;37.40;12.13;;;;;;;;;;5011985;28;20247;-48
2022/07/08 01:35:31;;;;;;;28.73;9.88;;;;;;;;;;5027038;28;20362;-48
2022/07/08 01:37:57;;;;;;;40.47;12.40;;;;;;;;;;5011828;28;20299;-48
2022/07/08 01:40:23;;;;;;;44.50;13.52;;;;;;;;;;5011860;28;20239;-48
2022/07/08 01:42:49;;;;;;;33.75;10.65;;;;;;;;;;5011561;28;20220;-48
2022/07/08 01:45:15;;;;;;;25.85;9.18;;;;;;;;;;5012329;28;20701;-48
2022/07/08 01:47:41;;;;;;;31.15;9.60;;;;;;;;;;5011188;28;20701;-48
2022/07/08 01:50:07;;;;;;;43.40;12.95;;;;;;;;;;5011420;28;20216;-49
2022/07/08 01:52:33;;;;;;;39.97;12.40;;;;;;;;;;5011498;28;20223;-48
2022/07/08 01:54:59;;;;;;;39.03;12.00;;;;;;;;;;5010317;28;20299;-50
2022/07/08 01:57:25;;;;;;;55.43;15.60;;;;;;;;;;5009686;28;20212;-48
2022/07/08 01:59:51;;;;;;;37.33;11.57;;;;;;;;;;5011826;28;20177;-49
2022/07/08 02:02:18;;;;;;;38.93;11.90;;;;;;;;;;5010943;28;20268;-49
2022/07/08 02:04:44;;;;;;;44.90;13.67;;;;;;;;;;5011437;28;20250;-49
2022/07/08 02:07:10;;;;;;;36.63;11.60;;;;;;;;;;5011107;28;20228;-49
2022/07/08 02:09:37;;;;;;;36.13;11.30;;;;;;;;;;5011150;28;20212;-49
2022/07/08 02:12:19;;;;;;;34.63;11.17;;;;;;;;;;5011783;28;20649;-49
2022/07/08 02:14:47;;;;;;;37.83;11.47;;;;;;;;;;5011343;28;20197;-49
2022/07/08 02:17:14;;;;;;;36.88;10.90;;;;;;;;;;5011424;28;20221;-49
2022/07/08 02:19:41;;;;;;;35.87;11.17;;;;;;;;;;5010999;28;20217;-49
2022/07/08 02:22:07;;;;;;;36.93;11.00;;;;;;;;;;5011071;28;20220;-49
2022/07/08 02:24:33;;;;;;;33.43;10.13;;;;;;;;;;5011247;28;20223;-49
2022/07/08 02:26:59;;;;;;;31.80;10.20;;;;;;;;;;5011070;28;20216;-48
2022/07/08 02:29:25;;;;;;;36.47;11.33;;;;;;;;;;5010716;28;20263;-49
2022/07/08 02:31:51;;;;;;;14.13;6.00;;;;;;;;;;5010909;28;20219;-49
2022/07/08 02:34:17;;;;;;;44.50;13.02;;;;;;;;;;5010679;28;20213;-49
2022/07/08 02:36:43;;;;;;;25.17;8.57;;;;;;;;;;5011325;28;20243;-49
2022/07/08 02:39:09;;;;;;;3.93;3.47;;;;;;;;;;5011325;28;20181;-49
2022/07/08 02:41:38;;;;;;;31.90;10.13;;;;;;;;;;5010769;28;20223;-49
2022/07/08 02:44:04;;;;;;;11.27;5.35;;;;;;;;;;5010613;28;20240;-49
2022/07/08 02:46:30;;;;;;;41.50;12.17;;;;;;;;;;5010309;28;20227;-49
2022/07/08 02:48:57;;;;;;;46.10;13.50;;;;;;;;;;5010506;28;20296;-49
2022/07/08 02:51:22;;;;;;;35.23;10.70;;;;;;;;;;5010706;28;20213;-50
2022/07/08 02:53:48;;;;;;;40.07;11.37;;;;;;;;;;5011047;28;20246;-49
2022/07/08 02:56:14;;;;;;;27.23;9.20;;;;;;;;;;5010797;28;20224;-49
2022/07/08 02:58:40;;;;;;;16.93;6.73;;;;;;;;;;5010061;28;20212;-49
2022/07/08 03:01:06;;;;;;;33.72;10.77;;;;;;;;;;5010644;28;20227;-49
2022/07/08 03:03:32;;;;;;;36.47;10.67;;;;;;;;;;5010446;28;20742;-49
2022/07/08 03:05:58;;;;;;;34.47;10.63;;;;;;;;;;5010816;28;20254;-49
2022/07/08 03:08:24;;;;;;;34.53;10.23;;;;;;;;;;5010764;28;20305;-49
2022/07/08 03:10:50;;;;;;;12.40;6.03;;;;;;;;;;5010036;28;20292;-49
2022/07/08 03:13:16;;;;;;;41.47;12.53;;;;;;;;;;5010308;28;20304;-49
2022/07/08 03:15:42;;;;;;;39.37;12.53;;;;;;;;;;5010267;28;20219;-49
2022/07/08 03:18:08;;;;;;;29.53;9.27;;;;;;;;;;5010933;28;20205;-49
2022/07/08 03:20:34;;;;;;;41.90;13.07;;;;;;;;;;5010377;28;20648;-49
2022/07/08 03:23:00;;;;;;;34.23;10.73;;;;;;;;;;5010429;28;20217;-49
2022/07/08 03:25:27;;;;;;;51.37;14.77;;;;;;;;;;5010237;28;20232;-49
2022/07/08 03:27:53;;;;;;;21.17;7.70;;;;;;;;;;5010471;28;20267;-49
2022/07/08 03:30:19;;;;;;;34.97;11.13;;;;;;;;;;5014188;28;20649;-49
2022/07/08 03:32:44;;;;;;;34.93;10.67;;;;;;;;;;5014491;28;20168;-49
2022/07/08 03:35:10;;;;;;;36.77;11.80;;;;;;;;;;5013757;28;20212;-49
2022/07/08 03:37:41;;;;;;;41.57;12.93;;;;;;;;;;5014181;28;20308;-49
2022/07/08 03:42:53;;;;;;;34.13;10.90;;;;;;;;;;5014029;28;20299;-48
2022/07/08 03:45:19;;;;;;;41.27;13.30;;;;;;;;;;5013649;28;20256;-49
2022/07/08 03:47:45;;;;;;;102.70;25.30;;;;;;;;;;5013554;28;20558;-49
2022/07/08 03:50:11;;;;;;;19.83;8.37;;;;;;;;;;5013446;28;20220;-49
2022/07/08 03:52:37;;;;;;;32.17;10.77;;;;;;;;;;5013476;28;20209;-49
2022/07/08 03:55:03;;;;;;;75.23;21.73;;;;;;;;;;5013369;28;20220;-49
2022/07/08 03:57:29;;;;;;;41.83;13.20;;;;;;;;;;5013383;28;20275;-49
2022/07/08 03:59:55;;;;;;;102.60;25.37;;;;;;;;;;5013664;28;20542;-49
2022/07/08 04:02:20;;;;;;;48.37;14.17;;;;;;;;;;5013237;28;20292;-48
2022/07/08 04:04:46;;;;;;;18.67;7.43;;;;;;;;;;5013166;28;20209;-49
2022/07/08 04:07:12;;;;;;;47.33;13.93;;;;;;;;;;5013255;28;20228;-49
2022/07/08 04:09:38;;;;;;;39.87;12.07;;;;;;;;;;5013409;28;20209;-49
2022/07/08 04:12:05;;;;;;;54.87;16.17;;;;;;;;;;5013690;28;20177;-49
2022/07/08 04:14:31;;;;;;;43.47;12.70;;;;;;;;;;5013081;28;20220;-49
2022/07/08 04:16:57;;;;;;;38.20;12.70;;;;;;;;;;5013217;28;20217;-49
2022/07/08 04:19:23;;;;;;;49.93;15.17;;;;;;;;;;5013184;28;20240;-48
2022/07/08 04:21:49;;;;;;;41.80;13.93;;;;;;;;;;5013182;28;20205;-49
2022/07/08 04:24:15;;;;;;;38.97;12.60;;;;;;;;;;5012999;28;20184;-49
2022/07/08 04:26:41;;;;;;;41.80;13.43;;;;;;;;;;5013392;28;20209;-49
2022/07/08 04:29:07;;;;;;;48.95;14.48;;;;;;;;;;5012331;28;20227;-49
2022/07/08 04:31:33;;;;;;;43.63;13.30;;;;;;;;;;5012965;28;20293;-48
2022/07/08 04:33:59;;;;;;;43.87;13.50;;;;;;;;;;5012778;28;20213;-48
2022/07/08 04:36:25;;;;;;;53.10;15.70;;;;;;;;;;5012444;28;20220;-49
2022/07/08 04:38:51;;;;;;;54.67;16.97;;;;;;;;;;5013205;28;20184;-48
2022/07/08 04:41:17;;;;;;;56.37;16.43;;;;;;;;;;5011445;28;20305;-48
2022/07/08 04:43:43;;;;;;;40.47;13.00;;;;;;;;;;5012513;28;20236;-48
2022/07/08 04:46:10;;;;;;;47.63;15.27;;;;;;;;;;5012685;28;20704;-48
2022/07/08 04:48:36;;;;;;;45.67;14.30;;;;;;;;;;5012284;28;20216;-48
2022/07/08 04:51:02;;;;;;;50.40;16.40;;;;;;;;;;5012924;28;20181;-48
2022/07/08 04:53:28;;;;;;;58.93;19.20;;;;;;;;;;5012187;28;20267;-47
2022/07/08 04:55:54;;;;;;;51.37;16.37;;;;;;;;;;5012467;28;20254;-49
2022/07/08 04:58:20;;;;;;;22.73;9.93;;;;;;;;;;5012391;28;20432;-48
2022/07/08 05:00:46;;;;;;;49.07;16.30;;;;;;;;;;5012289;28;20224;-48
2022/07/08 05:03:12;;;;;;;34.37;12.67;;;;;;;;;;5012035;28;20173;-48
2022/07/08 05:05:38;;;;;;;50.97;17.27;;;;;;;;;;5012430;28;20197;-48
2022/07/08 05:08:04;;;;;;;44.00;16.07;;;;;;;;;;5012534;28;20235;-48
2022/07/08 05:10:30;;;;;;;43.42;17.27;;;;;;;;;;5012432;28;20720;-48
2022/07/08 05:12:57;;;;;;;36.17;15.00;;;;;;;;;;5010547;28;20251;-49
2022/07/08 05:15:23;;;;;;;35.50;14.18;;;;;;;;;;5012147;28;20213;-48
2022/07/08 05:17:49;;;;;;;26.50;13.17;;;;;;;;;;5012050;28;20197;-48
2022/07/08 05:20:16;;;;;;;47.67;18.00;;;;;;;;;;5012188;28;20577;-48
2022/07/08 05:22:42;;;;;;;37.17;16.50;;;;;;;;;;5012019;28;20216;-48
2022/07/08 05:25:09;;;;;;;39.92;17.60;;;;;;;;;;5012117;28;20570;-48
2022/07/08 05:27:35;;;;;;;29.23;15.40;;;;;;;;;;5011578;28;20220;-49
2022/07/08 05:30:01;;;;;;;48.95;21.67;;;;;;;;;;5011554;28;20200;-48
2022/07/08 05:32:27;;;;;;;68.87;26.20;;;;;;;;;;5011830;28;20264;-48
2022/07/08 05:34:53;;;;;;;40.30;20.00;;;;;;;;;;5011866;28;20310;-51
2022/07/08 05:37:19;;;;;;;41.75;21.50;;;;;;;;;;5011567;28;20705;-51
2022/07/08 05:39:45;;;;;;;44.63;20.93;;;;;;;;;;5011534;28;20716;-51
2022/07/08 05:42:11;;;;;;;25.30;16.40;;;;;;;;;;5011637;28;20181;-51
2022/07/08 05:44:38;;;;;;;42.92;20.75;;;;;;;;;;5012117;28;20655;-51
2022/07/08 05:47:05;;;;;;;41.58;21.73;;;;;;;;;;5011068;28;20225;-51
2022/07/08 05:49:31;;;;;;;59.10;22.52;;;;;;;;;;5009651;28;20220;-51
2022/07/08 05:51:57;;;;;;;57.50;22.88;;;;;;;;;;5009971;28;20220;-51
2022/07/08 05:54:23;;;;;;;45.00;19.98;;;;;;;;;;5011329;28;20266;-51
2022/07/08 05:56:49;;;;;;;43.90;18.38;;;;;;;;;;5011803;28;20236;-51
2022/07/08 05:59:15;;;;;;;23.23;16.90;;;;;;;;;;5011293;28;20630;-50
2022/07/08 06:01:41;;;;;;;43.90;19.85;;;;;;;;;;5011522;28;20240;-51
2022/07/08 06:04:07;;;;;;;36.28;25.48;;;;;;;;;;5011017;28;20224;-50
2022/07/08 06:06:33;;;;;;;61.65;35.83;;;;;;;;;;5009413;28;20589;-51
2022/07/08 06:08:59;;;;;;;46.92;23.95;;;;;;;;;;5011664;28;20577;-52
2022/07/08 06:11:25;;;;;;;76.10;30.95;;;;;;;;;;5010534;28;20421;-49
2022/07/08 06:13:51;;;;;;;36.63;22.95;;;;;;;;;;5011128;28;20699;-51
2022/07/08 06:16:17;;;;;;;27.70;18.52;;;;;;;;;;5012202;28;20236;-49
2022/07/08 06:18:43;;;;;;;48.72;26.63;;;;;;;;;;5010837;28;20757;-49
2022/07/08 06:21:09;;;;;;;47.95;26.08;;;;;;;;;;5011137;28;20212;-49
2022/07/08 06:23:35;;;;;;;42.75;23.80;;;;;;;;;;5011477;28;20561;-49
2022/07/08 06:26:01;;;;;;;41.72;22.25;;;;;;;;;;5011024;28;20770;-49
2022/07/08 06:28:27;;;;;;;52.28;24.38;;;;;;;;;;5010576;28;20212;-51
2022/07/08 06:30:53;;;;;;;51.38;24.58;;;;;;;;;;5010628;28;20219;-51
2022/07/08 06:33:19;;;;;;;33.45;21.05;;;;;;;;;;5010757;28;20180;-51
2022/07/08 06:35:45;;;;;;;37.80;22.65;;;;;;;;;;5010756;28;20700;-51
2022/07/08 06:38:11;;;;;;;48.38;24.90;;;;;;;;;;5010479;28;20677;-51
2022/07/08 06:40:37;;;;;;;57.70;27.17;;;;;;;;;;5010909;28;20792;-51
2022/07/08 06:43:03;;;;;;;34.03;20.63;;;;;;;;;;5009899;28;20216;-51
2022/07/08 06:45:32;;;;;;;48.08;24.75;;;;;;;;;;5010696;28;20216;-51
2022/07/08 06:47:58;;;;;;;37.63;21.63;;;;;;;;;;5011112;28;20578;-51
2022/07/08 06:50:24;;;;;;;53.25;24.75;;;;;;;;;;5010425;28;20299;-51
2022/07/08 06:52:50;;;;;;;45.83;22.80;;;;;;;;;;5010596;28;20296;-51
2022/07/08 06:55:16;;;;;;;36.75;22.92;;;;;;;;;;5010408;28;20209;-51
2022/07/08 06:57:42;;;;;;;18.08;16.55;;;;;;;;;;5010223;28;20282;-51
2022/07/08 07:00:08;;;;;;;37.83;22.65;;;;;;;;;;5025541;28;20231;-50
2022/07/08 07:02:34;;;;;;;49.85;28.80;;;;;;;;;;5010309;28;20686;-52
2022/07/08 07:05:00;;;;;;;45.45;26.65;;;;;;;;;;5014229;28;20216;-51
2022/07/08 07:07:27;;;;;;;23.42;18.48;;;;;;;;;;5013942;28;20716;-51
2022/07/08 07:09:53;;;;;;;37.83;22.25;;;;;;;;;;5014546;28;20213;-52
2022/07/08 07:12:19;;;;;;;48.28;30.38;;;;;;;;;;5013242;28;20390;-51
2022/07/08 07:14:45;;;;;;;26.25;19.60;;;;;;;;;;5014713;28;20180;-51
2022/07/08 07:17:11;;;;;;;108.97;47.70;;;;;;;;;;5009926;28;20221;-54
2022/07/08 07:19:37;;;;;;;156.88;54.15;;;;;;;;;;4987597;28;20496;-54
2022/07/08 07:22:03;;;;;;;92.90;42.80;;;;;;;;;;4990290;28;20239;-54
2022/07/08 07:24:29;;;;;;;116.32;46.35;;;;;;;;;;4991242;28;20759;-54
2022/07/08 07:26:55;;;;;;;120.40;50.30;;;;;;;;;;4989696;28;20212;-54
2022/07/08 07:29:21;;;;;;;178.95;59.88;;;;;;;;;;4989888;28;20218;-54
2022/07/08 07:31:47;;;;;;;110.35;48.03;;;;;;;;;;4991182;28;20245;-54
2022/07/08 07:34:13;;;;;;;170.10;60.88;;;;;;;;;;4993702;28;20245;-54
2022/07/08 07:36:39;;;;;;;129.85;49.78;;;;;;;;;;4994826;28;20251;-53
2022/07/08 07:39:06;;;;;;;180.05;63.92;;;;;;;;;;4985168;28;20184;-54
2022/07/08 07:41:34;;;;;;;154.27;62.00;;;;;;;;;;4990753;28;20225;-54
2022/07/08 07:44:00;;;;;;;132.32;58.60;;;;;;;;;;4990251;28;20309;-53
2022/07/08 07:46:26;;;;;;;168.38;68.25;;;;;;;;;;4991243;28;20347;-53
2022/07/08 07:48:51;;;;;;;141.13;61.38;;;;;;;;;;4989808;28;20220;-52
2022/07/08 07:51:17;;;;;;;143.50;63.25;;;;;;;;;;4984877;28;20216;-53
2022/07/08 07:53:43;;;;;;;128.02;90.07;;;;;;;;;;4986746;28;20217;-52
2022/07/08 07:56:09;;;;;;;275.63;100.22;;;;;;;;;;4982538;28;20229;-52
2022/07/08 07:58:38;;;;;;;77.10;45.67;;;;;;;;;;4992651;28;20573;-53
2022/07/08 08:01:04;;;;;;;146.85;62.75;;;;;;;;;;4987830;28;20221;-52
2022/07/08 08:03:29;;;;;;;139.95;73.00;;;;;;;;;;4994125;28;20247;-53
2022/07/08 08:05:55;;;;;;;187.40;82.93;;;;;;;;;;4991086;28;20212;-53
2022/07/08 08:08:22;;;;;;;162.75;82.30;;;;;;;;;;4986801;28;20209;-53
2022/07/08 08:10:48;;;;;;;130.25;82.22;;;;;;;;;;4991231;28;20228;-53
2022/07/08 08:13:14;;;;;;;190.07;82.63;;;;;;;;;;4993825;28;20669;-52
2022/07/08 08:15:40;;;;;;;317.20;115.30;;;;;;;;;;4976654;28;20221;-53
2022/07/08 08:18:06;;;;;;;193.50;78.80;;;;;;;;;;4978744;28;20664;-52
2022/07/08 08:20:32;;;;;;;120.30;66.32;;;;;;;;;;4991067;28;20242;-52
2022/07/08 08:22:58;;;;;;;57.50;51.50;;;;;;;;;;4996677;28;20208;-52
2022/07/08 08:25:24;;;;;;;117.57;70.32;;;;;;;;;;5001111;28;20310;-50
2022/07/08 08:27:51;;;;;;;96.13;62.75;;;;;;;;;;5001832;28;20692;-49
2022/07/08 08:30:17;;;;;;;107.07;68.10;;;;;;;;;;4996358;28;20654;-50
2022/07/08 08:32:44;;;;;;;147.27;62.50;;;;;;;;;;4989501;28;20231;-53
2022/07/08 08:35:10;;;;;;;196.57;77.47;;;;;;;;;;4980893;28;22477;-53
2022/07/08 08:37:36;;;;;;;244.65;105.25;;;;;;;;;;4986214;28;20271;-53
2022/07/08 08:40:03;;;;;;;127.65;70.75;;;;;;;;;;4982796;28;20216;-52
2022/07/08 08:42:31;;;;;;;180.50;84.70;;;;;;;;;;4988455;28;20225;-52
2022/07/08 08:44:58;;;;;;;98.85;66.88;;;;;;;;;;4991412;28;20263;-52
2022/07/08 08:47:27;;;;;;;183.10;89.20;;;;;;;;;;4992042;28;20248;-53
2022/07/08 08:49:55;;;;;;;89.47;57.58;;;;;;;;;;4992860;28;20228;-53
2022/07/08 08:52:22;;;;;;;226.43;91.13;;;;;;;;;;4986402;28;20216;-53
2022/07/08 08:54:49;;;;;;;191.48;89.00;;;;;;;;;;4990598;28;20805;-53
2022/07/08 08:57:16;;;;;;;95.15;61.58;;;;;;;;;;4991550;28;20463;-53
2022/07/08 08:59:42;;;;;;;73.43;50.88;;;;;;;;;;4994258;28;20181;-53
2022/07/08 09:02:08;;;;;;;92.95;55.78;;;;;;;;;;4987984;28;20215;-52
2022/07/08 09:04:36;;;;;;;167.57;70.28;;;;;;;;;;4988982;28;20228;-52
2022/07/08 09:07:02;;;;;;;110.07;54.80;;;;;;;;;;4991406;28;20217;-53
2022/07/08 09:09:28;;;;;;;60.63;49.10;;;;;;;;;;4992794;28;20757;-53
2022/07/08 09:11:54;;;;;;;70.18;49.35;;;;;;;;;;4984026;28;20220;-53
2022/07/08 09:14:21;;;;;;;94.57;54.05;;;;;;;;;;4996982;28;20209;-53
2022/07/08 09:17:06;;;;;;;131.27;60.83;;;;;;;;;;4994535;28;20216;-52
2022/07/08 09:19:32;;;;;;;173.48;59.67;;;;;;;;;;4991637;28;20766;-53
2022/07/08 09:21:58;;;;;;;97.53;48.47;;;;;;;;;;4985109;28;20220;-53
2022/07/08 09:24:24;;;;;;;199.18;63.72;;;;;;;;;;4990249;28;20204;-54
2022/07/08 09:26:54;;;;;;;156.90;67.18;;;;;;;;;;4980736;28;20213;-53
2022/07/08 09:29:20;;;;;;;186.65;74.28;;;;;;;;;;4989606;28;20228;-54
2022/07/08 09:31:46;;;;;;;92.05;43.22;;;;;;;;;;4987218;28;20217;-53
2022/07/08 09:34:16;;;;;;;55.40;33.10;;;;;;;;;;4994496;28;20267;-53
2022/07/08 09:36:48;;;;;;;126.22;48.90;;;;;;;;;;4985500;28;20265;-52
2022/07/08 09:39:25;;;;;;;196.10;66.85;;;;;;;;;;4989407;28;20204;-52
2022/07/08 09:41:51;;;;;;;152.68;53.95;;;;;;;;;;4987725;28;20309;-52
2022/07/08 09:44:19;;;;;;;167.70;62.15;;;;;;;;;;4988279;28;20213;-53
2022/07/08 09:46:45;;;;;;;116.20;49.65;;;;;;;;;;4982165;28;20319;-53
2022/07/08 09:49:26;;;;;;;109.57;44.17;;;;;;;;;;4985853;28;20221;-52
2022/07/08 09:51:52;;;;;;;186.13;50.95;;;;;;;;;;4981083;28;20307;-52
2022/07/08 09:54:18;;;;;;;154.95;42.33;;;;;;;;;;4980753;28;20732;-51
2022/07/08 09:56:57;;;;;;;195.10;55.08;;;;;;;;;;4989231;28;20209;-50
2022/07/08 09:59:23;;;;;;;52.05;27.55;;;;;;;;;;4987718;28;20247;-51
2022/07/08 10:01:50;;;;;;;163.95;45.80;;;;;;;;;;4985199;28;21192;-52
2022/07/08 10:04:17;;;;;;;93.13;33.58;;;;;;;;;;4990538;28;20329;-51
2022/07/08 10:06:43;;;;;;;116.65;43.45;;;;;;;;;;4990640;28;20232;-53
2022/07/08 10:09:09;;;;;;;71.53;32.17;;;;;;;;;;4988168;28;20223;-51
2022/07/08 10:11:37;;;;;;;194.15;52.92;;;;;;;;;;4976959;28;20181;-51
2022/07/08 10:14:04;;;;;;;100.50;36.38;;;;;;;;;;4990987;28;20220;-52
2022/07/08 10:16:30;;;;;;;138.15;43.55;;;;;;;;;;4981523;28;20307;-52
2022/07/08 10:18:56;;;;;;;123.90;40.35;;;;;;;;;;4982902;28;20439;-52
2022/07/08 10:21:23;;;;;;;124.25;36.70;;;;;;;;;;4984842;28;21456;-51
2022/07/08 10:23:51;;;;;;;131.38;42.97;;;;;;;;;;4983121;28;20189;-51
2022/07/08 10:26:18;;;;;;;188.00;51.35;;;;;;;;;;4983329;28;20251;-51
2022/07/08 10:28:44;;;;;;;260.25;70.40;;;;;;;;;;4977793;28;20213;-50
2022/07/08 10:31:19;;;;;;;57.40;31.60;;;;;;;;;;4987283;28;20563;-51
2022/07/08 10:33:46;;;;;;;73.43;31.92;;;;;;;;;;4986000;28;20204;-51
2022/07/08 10:36:12;;;;;;;83.00;35.63;;;;;;;;;;4991848;28;20315;-49
2022/07/08 10:38:41;;;;;;;55.20;31.77;;;;;;;;;;5010029;28;20217;-52
2022/07/08 10:41:08;;;;;;;39.65;27.17;;;;;;;;;;5010733;28;20689;-52
2022/07/08 10:43:35;;;;;;;48.30;31.27;;;;;;;;;;5010407;28;20208;-52
2022/07/08 10:46:05;;;;;;;49.60;30.35;;;;;;;;;;5010305;28;20220;-53
2022/07/08 10:48:46;;;;;;;50.30;32.15;;;;;;;;;;5010324;28;20216;-52
2022/07/08 10:51:21;;;;;;;42.17;32.53;;;;;;;;;;5010197;28;20514;-52
2022/07/08 10:53:54;;;;;;;40.70;25.27;;;;;;;;;;5010857;28;20629;-52
2022/07/08 10:56:38;;;;;;;72.68;37.63;;;;;;;;;;5008443;28;20234;-52
2022/07/08 10:59:19;;;;;;;49.97;31.83;;;;;;;;;;4990012;28;20583;-52
2022/07/08 11:01:52;;;;;;;65.88;37.72;;;;;;;;;;5003611;28;20208;-52
2022/07/08 11:04:22;;;;;;;57.72;38.10;;;;;;;;;;5009864;28;20221;-53
2022/07/08 11:06:48;;;;;;;66.57;39.88;;;;;;;;;;5009380;28;20231;-52
2022/07/08 11:09:22;;;;;;;42.05;34.70;;;;;;;;;;5010594;28;20557;-52
2022/07/08 11:11:49;;;;;;;63.13;41.15;;;;;;;;;;5010332;28;20181;-52
2022/07/08 11:14:16;;;;;;;37.03;32.97;;;;;;;;;;5009969;28;20253;-52
2022/07/08 11:16:41;;;;;;;47.88;39.38;;;;;;;;;;5010378;28;20225;-52
2022/07/08 11:19:08;;;;;;;43.47;40.35;;;;;;;;;;5009830;28;20208;-52
2022/07/08 11:21:34;;;;;;;62.75;51.17;;;;;;;;;;5010084;28;20209;-53
2022/07/08 11:24:00;;;;;;;65.07;55.47;;;;;;;;;;5010681;28;20185;-52
2022/07/08 11:26:26;;;;;;;49.10;42.28;;;;;;;;;;5010302;28;20728;-52
2022/07/08 11:28:52;;;;;;;41.95;38.38;;;;;;;;;;5009722;28;20213;-53
2022/07/08 11:31:19;;;;;;;60.15;47.85;;;;;;;;;;4991730;28;20236;-53
2022/07/08 11:33:45;;;;;;;51.33;45.95;;;;;;;;;;5007087;28;20219;-53
2022/07/08 11:36:13;;;;;;;57.50;48.70;;;;;;;;;;5010086;28;20531;-53
2022/07/08 11:38:39;;;;;;;71.40;48.60;;;;;;;;;;5010309;28;20177;-52
2022/07/08 11:41:05;;;;;;;52.88;47.72;;;;;;;;;;5009981;28;20215;-53
2022/07/08 11:43:31;;;;;;;59.72;50.83;;;;;;;;;;5009798;28;20684;-52
2022/07/08 11:45:57;;;;;;;59.47;52.13;;;;;;;;;;5009442;28;20279;-53
2022/07/08 11:48:35;;;;;;;125.03;107.82;;;;;;;;;;5009749;28;20283;-53
2022/07/08 11:51:01;;;;;;;123.85;110.78;;;;;;;;;;5012336;28;20173;-53
2022/07/08 11:53:27;;;;;;;123.22;109.78;;;;;;;;;;5013739;28;20731;-52
2022/07/08 11:55:53;;;;;;;132.43;110.00;;;;;;;;;;5012966;28;20229;-52
2022/07/08 11:58:25;;;;;;;98.88;86.38;;;;;;;;;;5012988;28;20271;-53
2022/07/08 12:00:51;;;;;;;79.03;70.82;;;;;;;;;;5013070;28;20217;-52
2022/07/08 12:03:17;;;;;;;106.15;95.35;;;;;;;;;;5007419;28;20178;-53
2022/07/08 12:05:43;;;;;;;84.55;75.97;;;;;;;;;;4998289;28;20604;-52
2022/07/08 12:08:10;;;;;;;94.78;84.10;;;;;;;;;;5012990;28;20234;-52
2022/07/08 12:10:36;;;;;;;86.78;78.82;;;;;;;;;;5013501;28;20212;-54
2022/07/08 12:13:02;;;;;;;80.97;73.43;;;;;;;;;;5012850;28;20205;-52
2022/07/08 12:15:38;;;;;;;68.10;62.80;;;;;;;;;;5012913;28;20212;-53
2022/07/08 12:18:05;;;;;;;70.53;61.38;;;;;;;;;;5012674;28;20173;-53
2022/07/08 12:20:32;;;;;;;74.18;64.22;;;;;;;;;;5013327;28;20171;-52
2022/07/08 12:22:58;;;;;;;69.32;63.85;;;;;;;;;;5012567;28;20876;-52
2022/07/08 12:25:24;;;;;;;89.97;81.78;;;;;;;;;;5013134;28;20920;-52
2022/07/08 12:27:57;;;;;;;65.35;58.22;;;;;;;;;;5012153;28;20274;-53
2022/07/08 12:30:27;;;;;;;70.03;62.95;;;;;;;;;;5011224;28;20220;-53
2022/07/08 12:32:53;;;;;;;69.30;62.83;;;;;;;;;;5012893;28;20173;-53
2022/07/08 12:35:30;;;;;;;87.35;75.85;;;;;;;;;;5012503;28;20209;-53
2022/07/08 12:38:11;;;;;;;256.23;147.73;;;;;;;;;;5003606;28;20268;-55
2022/07/08 12:40:38;;;;;;;342.75;169.27;;;;;;;;;;4973180;28;22347;-55
2022/07/08 12:43:05;;;;;;;286.05;165.68;;;;;;;;;;4975554;28;20883;-56
2022/07/08 12:45:31;;;;;;;303.70;171.02;;;;;;;;;;4969963;28;20225;-56
2022/07/08 12:47:58;;;;;;;319.80;174.82;;;;;;;;;;4974951;28;20282;-56
2022/07/08 12:50:24;;;;;;;243.15;158.68;;;;;;;;;;4980404;28;20219;-56
2022/07/08 12:52:50;;;;;;;209.07;156.55;;;;;;;;;;4984069;28;20239;-57
2022/07/08 12:55:16;;;;;;;250.65;172.38;;;;;;;;;;4989420;28;20217;-55
2022/07/08 12:57:43;;;;;;;279.98;185.00;;;;;;;;;;4981115;28;20229;-56
2022/07/08 13:00:09;;;;;;;241.32;181.77;;;;;;;;;;4977049;28;20200;-55
2022/07/08 13:02:35;;;;;;;254.40;187.43;;;;;;;;;;4987005;28;20634;-55
2022/07/08 13:05:01;;;;;;;260.33;169.73;;;;;;;;;;4986229;28;20217;-55
2022/07/08 13:07:27;;;;;;;302.38;203.32;;;;;;;;;;4982230;28;20470;-50
2022/07/08 13:09:53;;;;;;;224.30;177.18;;;;;;;;;;4989726;28;20674;-51
2022/07/08 13:12:19;;;;;;;297.23;189.65;;;;;;;;;;4984999;28;20193;-50
2022/07/08 13:14:45;;;;;;;245.13;189.93;;;;;;;;;;4990749;28;20508;-50
2022/07/08 13:17:11;;;;;;;288.60;208.30;;;;;;;;;;4986487;28;20284;-52
2022/07/08 13:19:37;;;;;;;225.15;176.30;;;;;;;;;;4987126;28;20308;-51
2022/07/08 13:22:03;;;;;;;164.73;146.90;;;;;;;;;;4994540;28;20244;-52
2022/07/08 13:24:29;;;;;;;251.95;177.57;;;;;;;;;;4988345;28;20235;-52
2022/07/08 13:26:55;;;;;;;227.63;168.27;;;;;;;;;;4984600;28;20761;-52
2022/07/08 13:29:21;;;;;;;208.93;165.15;;;;;;;;;;4992658;28;20776;-52
2022/07/08 13:31:47;;;;;;;225.38;175.85;;;;;;;;;;4987971;28;20225;-52
2022/07/08 13:34:19;;;;;;;243.73;189.75;;;;;;;;;;4995812;28;20217;-52
2022/07/08 13:36:45;;;;;;;238.27;187.98;;;;;;;;;;4994514;28;20225;-52
2022/07/08 13:39:11;;;;;;;188.45;161.63;;;;;;;;;;4993164;28;20589;-52
2022/07/08 13:41:37;;;;;;;218.23;175.23;;;;;;;;;;4992750;28;20271;-56
2022/07/08 13:44:02;;;;;;;174.48;157.05;;;;;;;;;;5008826;28;20221;-50
2022/07/08 13:46:30;;;;;;;194.27;172.13;;;;;;;;;;4991926;28;20302;-50
2022/07/08 13:48:56;;;;;;;244.32;198.55;;;;;;;;;;4990461;28;20288;-53
2022/07/08 13:51:22;;;;;;;212.23;179.95;;;;;;;;;;4991027;28;20219;-52
2022/07/08 13:53:48;;;;;;;214.70;171.02;;;;;;;;;;4991007;28;20616;-52
2022/07/08 13:56:14;;;;;;;243.68;186.05;;;;;;;;;;4994429;28;20573;-53
2022/07/08 13:58:40;;;;;;;217.13;177.40;;;;;;;;;;4994927;28;20225;-53
2022/07/08 14:01:06;;;;;;;239.65;176.43;;;;;;;;;;4986614;28;20613;-52
2022/07/08 14:03:32;;;;;;;198.80;169.43;;;;;;;;;;4991410;28;20193;-52
2022/07/08 14:05:58;;;;;;;202.77;164.27;;;;;;;;;;4990239;28;20217;-52
2022/07/08 14:08:24;;;;;;;180.68;146.18;;;;;;;;;;4988873;28;20217;-52
2022/07/08 14:10:50;;;;;;;193.60;145.25;;;;;;;;;;4993484;28;20216;-52